sensor_id;sensor_type;location;lat;lon;timestamp;P1;durP1;ratioP1;P2;durP2;ratioP2
19891;SDS011;10108;50.142;8.724;2022-09-21T00:56:45;8.50;;;5.90;;
19891;SDS011;10108;50.142;8.724;2022-09-21T01:01:43;9.32;;;6.03;;
19891;SDS011;10108;50.142;8.724;2022-09-21T01:10:08;8.50;;;5.75;;
19891;SDS011;10108;50.142;8.724;2022-09-21T01:50:20;9.15;;;6.10;;
19891;SDS011;10108;50.142;8.724;2022-09-21T01:53:05;11.27;;;6.65;;
19891;SDS011;10108;50.142;8.724;2022-09-21T01:55:39;9.85;;;6.20;;
19891;SDS011;10108;50.142;8.724;2022-09-21T01:58:26;10.25;;;5.82;;
19891;SDS011;10108;50.142;8.724;2022-09-21T02:04:50;14.00;;;6.68;;
19891;SDS011;10108;50.142;8.724;2022-09-21T02:07:17;9.65;;;6.15;;
19891;SDS011;10108;50.142;8.724;2022-09-21T02:12:38;10.27;;;6.60;;
19891;SDS011;10108;50.142;8.724;2022-09-21T02:18:08;11.40;;;6.85;;
19891;SDS011;10108;50.142;8.724;2022-09-21T02:20:48;9.40;;;6.82;;
19891;SDS011;10108;50.142;8.724;2022-09-21T02:23:56;10.68;;;6.72;;
19891;SDS011;10108;50.142;8.724;2022-09-21T02:26:25;11.38;;;7.00;;
19891;SDS011;10108;50.142;8.724;2022-09-21T02:31:31;11.80;;;6.45;;
19891;SDS011;10108;50.142;8.724;2022-09-21T02:43:19;10.15;;;6.40;;
19891;SDS011;10108;50.142;8.724;2022-09-21T02:48:33;12.15;;;7.30;;
19891;SDS011;10108;50.142;8.724;2022-09-21T02:51:24;10.70;;;6.57;;
19891;SDS011;10108;50.142;8.724;2022-09-21T02:54:10;10.65;;;6.78;;
19891;SDS011;10108;50.142;8.724;2022-09-21T02:56:40;10.25;;;7.03;;
19891;SDS011;10108;50.142;8.724;2022-09-21T02:59:09;10.57;;;7.00;;
19891;SDS011;10108;50.142;8.724;2022-09-21T03:01:39;10.45;;;6.70;;
19891;SDS011;10108;50.142;8.724;2022-09-21T03:04:06;10.38;;;6.90;;
19891;SDS011;10108;50.142;8.724;2022-09-21T03:06:32;10.32;;;6.90;;
19891;SDS011;10108;50.142;8.724;2022-09-21T03:11:31;9.40;;;6.70;;
19891;SDS011;10108;50.142;8.724;2022-09-21T03:13:58;12.30;;;7.00;;
19891;SDS011;10108;50.142;8.724;2022-09-21T03:16:30;9.82;;;6.40;;
19891;SDS011;10108;50.142;8.724;2022-09-21T03:18:56;10.80;;;7.20;;
19891;SDS011;10108;50.142;8.724;2022-09-21T03:21:22;10.40;;;6.65;;
19891;SDS011;10108;50.142;8.724;2022-09-21T03:23:49;13.70;;;7.10;;
19891;SDS011;10108;50.142;8.724;2022-09-21T03:26:15;10.75;;;7.35;;
19891;SDS011;10108;50.142;8.724;2022-09-21T03:28:41;12.95;;;7.47;;
19891;SDS011;10108;50.142;8.724;2022-09-21T03:31:08;11.00;;;7.43;;
19891;SDS011;10108;50.142;8.724;2022-09-21T03:33:35;11.73;;;7.38;;
19891;SDS011;10108;50.142;8.724;2022-09-21T03:36:02;11.57;;;7.22;;
19891;SDS011;10108;50.142;8.724;2022-09-21T03:38:28;13.40;;;7.45;;
19891;SDS011;10108;50.142;8.724;2022-09-21T03:40:55;11.35;;;7.72;;
19891;SDS011;10108;50.142;8.724;2022-09-21T03:43:22;13.80;;;7.47;;
19891;SDS011;10108;50.142;8.724;2022-09-21T03:45:49;12.00;;;7.90;;
19891;SDS011;10108;50.142;8.724;2022-09-21T03:48:15;12.88;;;7.53;;
19891;SDS011;10108;50.142;8.724;2022-09-21T03:50:42;10.32;;;7.40;;
19891;SDS011;10108;50.142;8.724;2022-09-21T03:53:08;11.70;;;7.88;;
19891;SDS011;10108;50.142;8.724;2022-09-21T03:55:34;11.20;;;7.78;;
19891;SDS011;10108;50.142;8.724;2022-09-21T03:58:01;16.70;;;7.85;;
19891;SDS011;10108;50.142;8.724;2022-09-21T04:00:27;12.02;;;7.35;;
19891;SDS011;10108;50.142;8.724;2022-09-21T04:02:54;11.05;;;7.65;;
19891;SDS011;10108;50.142;8.724;2022-09-21T04:05:20;12.27;;;7.72;;
19891;SDS011;10108;50.142;8.724;2022-09-21T04:07:47;11.40;;;7.90;;
19891;SDS011;10108;50.142;8.724;2022-09-21T04:10:15;11.10;;;7.80;;
19891;SDS011;10108;50.142;8.724;2022-09-21T04:12:44;10.80;;;7.93;;
19891;SDS011;10108;50.142;8.724;2022-09-21T04:15:13;10.90;;;7.47;;
19891;SDS011;10108;50.142;8.724;2022-09-21T04:17:41;10.48;;;7.72;;
19891;SDS011;10108;50.142;8.724;2022-09-21T04:20:07;11.57;;;8.10;;
19891;SDS011;10108;50.142;8.724;2022-09-21T04:22:34;10.38;;;7.63;;
19891;SDS011;10108;50.142;8.724;2022-09-21T04:25:01;13.10;;;7.47;;
19891;SDS011;10108;50.142;8.724;2022-09-21T04:27:30;13.55;;;7.80;;
19891;SDS011;10108;50.142;8.724;2022-09-21T04:29:57;10.65;;;7.50;;
19891;SDS011;10108;50.142;8.724;2022-09-21T04:32:24;11.05;;;7.50;;
19891;SDS011;10108;50.142;8.724;2022-09-21T04:34:50;12.07;;;7.80;;
19891;SDS011;10108;50.142;8.724;2022-09-21T04:37:16;11.60;;;7.38;;
19891;SDS011;10108;50.142;8.724;2022-09-21T04:39:42;9.82;;;7.70;;
19891;SDS011;10108;50.142;8.724;2022-09-21T04:42:09;10.55;;;7.65;;
19891;SDS011;10108;50.142;8.724;2022-09-21T04:44:35;13.25;;;8.27;;
19891;SDS011;10108;50.142;8.724;2022-09-21T04:47:01;11.30;;;7.50;;
19891;SDS011;10108;50.142;8.724;2022-09-21T04:49:27;11.02;;;7.90;;
19891;SDS011;10108;50.142;8.724;2022-09-21T04:51:53;11.30;;;7.35;;
19891;SDS011;10108;50.142;8.724;2022-09-21T04:54:20;10.50;;;7.88;;
19891;SDS011;10108;50.142;8.724;2022-09-21T04:56:46;12.82;;;7.13;;
19891;SDS011;10108;50.142;8.724;2022-09-21T04:59:12;11.70;;;7.50;;
19891;SDS011;10108;50.142;8.724;2022-09-21T05:01:38;11.70;;;7.40;;
19891;SDS011;10108;50.142;8.724;2022-09-21T05:04:04;13.90;;;7.60;;
19891;SDS011;10108;50.142;8.724;2022-09-21T05:06:31;12.50;;;8.15;;
19891;SDS011;10108;50.142;8.724;2022-09-21T05:08:58;12.38;;;7.57;;
19891;SDS011;10108;50.142;8.724;2022-09-21T05:11:43;12.25;;;8.13;;
19891;SDS011;10108;50.142;8.724;2022-09-21T05:14:09;12.20;;;8.25;;
19891;SDS011;10108;50.142;8.724;2022-09-21T05:16:36;11.15;;;8.25;;
19891;SDS011;10108;50.142;8.724;2022-09-21T05:19:02;12.10;;;7.95;;
19891;SDS011;10108;50.142;8.724;2022-09-21T05:21:28;12.27;;;7.88;;
19891;SDS011;10108;50.142;8.724;2022-09-21T05:23:56;10.25;;;7.75;;
19891;SDS011;10108;50.142;8.724;2022-09-21T05:26:23;9.75;;;7.63;;
19891;SDS011;10108;50.142;8.724;2022-09-21T05:28:50;10.48;;;7.43;;
19891;SDS011;10108;50.142;8.724;2022-09-21T05:39:09;10.18;;;7.82;;
19891;SDS011;10108;50.142;8.724;2022-09-21T05:41:36;10.48;;;7.63;;
19891;SDS011;10108;50.142;8.724;2022-09-21T05:44:03;10.85;;;7.85;;
19891;SDS011;10108;50.142;8.724;2022-09-21T05:46:38;12.18;;;8.18;;
19891;SDS011;10108;50.142;8.724;2022-09-21T05:49:21;11.43;;;8.05;;
19891;SDS011;10108;50.142;8.724;2022-09-21T05:52:15;10.88;;;7.75;;
19891;SDS011;10108;50.142;8.724;2022-09-21T05:54:57;11.48;;;7.80;;
19891;SDS011;10108;50.142;8.724;2022-09-21T05:57:44;13.93;;;7.63;;
19891;SDS011;10108;50.142;8.724;2022-09-21T06:05:39;13.00;;;8.20;;
19891;SDS011;10108;50.142;8.724;2022-09-21T06:08:07;17.17;;;8.77;;
19891;SDS011;10108;50.142;8.724;2022-09-21T06:10:33;18.02;;;8.75;;
19891;SDS011;10108;50.142;8.724;2022-09-21T06:13:00;13.75;;;7.95;;
19891;SDS011;10108;50.142;8.724;2022-09-21T06:15:26;13.20;;;8.07;;
19891;SDS011;10108;50.142;8.724;2022-09-21T06:17:53;11.10;;;8.43;;
19891;SDS011;10108;50.142;8.724;2022-09-21T06:20:19;12.70;;;8.65;;
19891;SDS011;10108;50.142;8.724;2022-09-21T06:22:45;12.98;;;8.57;;
19891;SDS011;10108;50.142;8.724;2022-09-21T06:25:11;12.57;;;7.82;;
19891;SDS011;10108;50.142;8.724;2022-09-21T06:27:37;14.23;;;8.73;;
19891;SDS011;10108;50.142;8.724;2022-09-21T06:30:03;11.70;;;8.27;;
19891;SDS011;10108;50.142;8.724;2022-09-21T06:32:30;16.80;;;8.55;;
19891;SDS011;10108;50.142;8.724;2022-09-21T06:34:56;13.15;;;7.60;;
19891;SDS011;10108;50.142;8.724;2022-09-21T06:37:22;14.45;;;8.15;;
19891;SDS011;10108;50.142;8.724;2022-09-21T06:39:48;16.80;;;8.05;;
19891;SDS011;10108;50.142;8.724;2022-09-21T06:42:14;12.45;;;7.70;;
19891;SDS011;10108;50.142;8.724;2022-09-21T06:44:40;13.02;;;7.93;;
19891;SDS011;10108;50.142;8.724;2022-09-21T06:47:06;14.52;;;7.60;;
19891;SDS011;10108;50.142;8.724;2022-09-21T06:49:33;11.80;;;8.05;;
19891;SDS011;10108;50.142;8.724;2022-09-21T06:51:59;12.32;;;8.02;;
19891;SDS011;10108;50.142;8.724;2022-09-21T06:54:25;13.50;;;8.00;;
19891;SDS011;10108;50.142;8.724;2022-09-21T06:56:51;10.27;;;7.50;;
19891;SDS011;10108;50.142;8.724;2022-09-21T06:59:17;14.02;;;8.13;;
19891;SDS011;10108;50.142;8.724;2022-09-21T07:01:43;13.40;;;8.52;;
19891;SDS011;10108;50.142;8.724;2022-09-21T07:04:09;12.85;;;8.00;;
19891;SDS011;10108;50.142;8.724;2022-09-21T07:06:35;10.98;;;7.70;;
19891;SDS011;10108;50.142;8.724;2022-09-21T07:09:01;12.48;;;7.82;;
19891;SDS011;10108;50.142;8.724;2022-09-21T07:11:27;13.68;;;8.20;;
19891;SDS011;10108;50.142;8.724;2022-09-21T07:13:54;10.15;;;7.22;;
19891;SDS011;10108;50.142;8.724;2022-09-21T07:16:20;11.57;;;7.80;;
19891;SDS011;10108;50.142;8.724;2022-09-21T07:18:47;11.98;;;7.55;;
19891;SDS011;10108;50.142;8.724;2022-09-21T07:21:13;11.82;;;7.22;;
19891;SDS011;10108;50.142;8.724;2022-09-21T07:23:40;10.48;;;6.88;;
19891;SDS011;10108;50.142;8.724;2022-09-21T07:26:08;13.23;;;7.10;;
19891;SDS011;10108;50.142;8.724;2022-09-21T07:28:36;9.65;;;7.03;;
19891;SDS011;10108;50.142;8.724;2022-09-21T07:31:06;13.25;;;7.15;;
19891;SDS011;10108;50.142;8.724;2022-09-21T07:33:33;14.00;;;7.20;;
19891;SDS011;10108;50.142;8.724;2022-09-21T07:36:00;11.05;;;7.13;;
19891;SDS011;10108;50.142;8.724;2022-09-21T07:38:28;9.52;;;7.18;;
19891;SDS011;10108;50.142;8.724;2022-09-21T07:40:54;12.50;;;7.00;;
19891;SDS011;10108;50.142;8.724;2022-09-21T07:43:20;10.27;;;7.32;;
19891;SDS011;10108;50.142;8.724;2022-09-21T07:45:51;14.43;;;7.40;;
19891;SDS011;10108;50.142;8.724;2022-09-21T07:48:22;10.07;;;6.80;;
19891;SDS011;10108;50.142;8.724;2022-09-21T07:50:49;10.35;;;7.05;;
19891;SDS011;10108;50.142;8.724;2022-09-21T07:53:15;12.32;;;7.25;;
19891;SDS011;10108;50.142;8.724;2022-09-21T07:55:42;15.50;;;6.90;;
19891;SDS011;10108;50.142;8.724;2022-09-21T07:58:08;12.82;;;6.97;;
19891;SDS011;10108;50.142;8.724;2022-09-21T08:00:53;11.15;;;6.57;;
19891;SDS011;10108;50.142;8.724;2022-09-21T08:03:19;18.08;;;6.95;;
19891;SDS011;10108;50.142;8.724;2022-09-21T08:05:45;14.07;;;6.75;;
19891;SDS011;10108;50.142;8.724;2022-09-21T08:08:12;10.88;;;6.93;;
19891;SDS011;10108;50.142;8.724;2022-09-21T08:10:38;12.35;;;7.07;;
19891;SDS011;10108;50.142;8.724;2022-09-21T08:13:04;13.32;;;7.50;;
19891;SDS011;10108;50.142;8.724;2022-09-21T08:15:30;11.18;;;6.70;;
19891;SDS011;10108;50.142;8.724;2022-09-21T08:17:56;9.13;;;6.72;;
19891;SDS011;10108;50.142;8.724;2022-09-21T08:20:23;12.48;;;7.00;;
19891;SDS011;10108;50.142;8.724;2022-09-21T08:22:49;11.75;;;6.80;;
19891;SDS011;10108;50.142;8.724;2022-09-21T08:25:18;11.05;;;6.47;;
19891;SDS011;10108;50.142;8.724;2022-09-21T08:27:44;10.95;;;6.72;;
19891;SDS011;10108;50.142;8.724;2022-09-21T08:30:11;11.35;;;7.00;;
19891;SDS011;10108;50.142;8.724;2022-09-21T08:32:38;12.27;;;7.07;;
19891;SDS011;10108;50.142;8.724;2022-09-21T08:35:06;10.43;;;7.10;;
19891;SDS011;10108;50.142;8.724;2022-09-21T08:37:32;14.05;;;7.57;;
19891;SDS011;10108;50.142;8.724;2022-09-21T08:40:01;14.98;;;7.20;;
19891;SDS011;10108;50.142;8.724;2022-09-21T08:45:03;9.93;;;6.75;;
19891;SDS011;10108;50.142;8.724;2022-09-21T08:50:05;10.85;;;7.00;;
19891;SDS011;10108;50.142;8.724;2022-09-21T08:56:01;10.40;;;6.68;;
19891;SDS011;10108;50.142;8.724;2022-09-21T08:58:28;13.35;;;6.85;;
19891;SDS011;10108;50.142;8.724;2022-09-21T09:06:23;11.80;;;6.90;;
19891;SDS011;10108;50.142;8.724;2022-09-21T09:09:13;9.52;;;6.40;;
19891;SDS011;10108;50.142;8.724;2022-09-21T09:14:48;10.88;;;6.40;;
19891;SDS011;10108;50.142;8.724;2022-09-21T09:23:04;9.43;;;6.15;;
19891;SDS011;10108;50.142;8.724;2022-09-21T09:25:40;11.82;;;6.57;;
19891;SDS011;10108;50.142;8.724;2022-09-21T09:30:55;9.18;;;6.47;;
19891;SDS011;10108;50.142;8.724;2022-09-21T09:33:27;10.43;;;6.53;;
19891;SDS011;10108;50.142;8.724;2022-09-21T09:36:04;10.45;;;6.95;;
19891;SDS011;10108;50.142;8.724;2022-09-21T09:38:36;11.30;;;6.88;;
19891;SDS011;10108;50.142;8.724;2022-09-21T09:44:01;9.45;;;6.80;;
19891;SDS011;10108;50.142;8.724;2022-09-21T09:52:39;11.18;;;6.70;;
19891;SDS011;10108;50.142;8.724;2022-09-21T09:55:16;8.68;;;6.57;;
19891;SDS011;10108;50.142;8.724;2022-09-21T09:57:49;8.70;;;6.57;;
19891;SDS011;10108;50.142;8.724;2022-09-21T10:00:17;8.43;;;6.38;;
19891;SDS011;10108;50.142;8.724;2022-09-21T10:02:45;10.38;;;6.47;;
19891;SDS011;10108;50.142;8.724;2022-09-21T10:05:32;8.38;;;6.20;;
19891;SDS011;10108;50.142;8.724;2022-09-21T10:08:00;12.60;;;7.05;;
19891;SDS011;10108;50.142;8.724;2022-09-21T10:10:31;11.52;;;6.72;;
19891;SDS011;10108;50.142;8.724;2022-09-21T10:13:04;8.38;;;6.00;;
19891;SDS011;10108;50.142;8.724;2022-09-21T10:15:40;9.50;;;5.80;;
19891;SDS011;10108;50.142;8.724;2022-09-21T10:23:28;8.63;;;6.20;;
19891;SDS011;10108;50.142;8.724;2022-09-21T10:28:26;7.22;;;5.72;;
19891;SDS011;10108;50.142;8.724;2022-09-21T10:31:10;8.30;;;5.65;;
19891;SDS011;10108;50.142;8.724;2022-09-21T10:33:46;7.85;;;5.38;;
19891;SDS011;10108;50.142;8.724;2022-09-21T10:36:25;8.07;;;5.60;;
19891;SDS011;10108;50.142;8.724;2022-09-21T10:41:55;8.50;;;5.65;;
19891;SDS011;10108;50.142;8.724;2022-09-21T10:44:26;7.07;;;5.50;;
19891;SDS011;10108;50.142;8.724;2022-09-21T10:47:03;8.68;;;5.80;;
19891;SDS011;10108;50.142;8.724;2022-09-21T10:49:44;7.55;;;5.68;;
19891;SDS011;10108;50.142;8.724;2022-09-21T10:52:16;11.13;;;5.90;;
19891;SDS011;10108;50.142;8.724;2022-09-21T10:54:46;8.30;;;5.97;;
19891;SDS011;10108;50.142;8.724;2022-09-21T10:57:17;9.48;;;5.50;;
19891;SDS011;10108;50.142;8.724;2022-09-21T10:59:46;9.10;;;5.40;;
19891;SDS011;10108;50.142;8.724;2022-09-21T11:02:25;7.57;;;5.28;;
19891;SDS011;10108;50.142;8.724;2022-09-21T11:05:00;8.23;;;5.20;;
19891;SDS011;10108;50.142;8.724;2022-09-21T11:07:32;7.45;;;5.40;;
19891;SDS011;10108;50.142;8.724;2022-09-21T11:12:54;10.32;;;5.70;;
19891;SDS011;10108;50.142;8.724;2022-09-21T11:18:18;8.45;;;5.35;;
19891;SDS011;10108;50.142;8.724;2022-09-21T11:21:04;7.85;;;5.47;;
19891;SDS011;10108;50.142;8.724;2022-09-21T11:23:48;7.32;;;5.18;;
19891;SDS011;10108;50.142;8.724;2022-09-21T11:26:29;6.72;;;5.22;;
19891;SDS011;10108;50.142;8.724;2022-09-21T11:29:04;8.48;;;5.20;;
19891;SDS011;10108;50.142;8.724;2022-09-21T11:34:51;7.32;;;5.20;;
19891;SDS011;10108;50.142;8.724;2022-09-21T11:37:31;9.20;;;5.40;;
19891;SDS011;10108;50.142;8.724;2022-09-21T11:51:12;5.97;;;5.05;;
19891;SDS011;10108;50.142;8.724;2022-09-21T12:08:31;6.85;;;5.20;;
19891;SDS011;10108;50.142;8.724;2022-09-21T12:11:16;7.32;;;5.20;;
19891;SDS011;10108;50.142;8.724;2022-09-21T12:17:00;7.85;;;4.97;;
19891;SDS011;10108;50.142;8.724;2022-09-21T12:19:44;7.93;;;5.25;;
19891;SDS011;10108;50.142;8.724;2022-09-21T12:22:15;10.02;;;5.70;;
19891;SDS011;10108;50.142;8.724;2022-09-21T12:24:53;5.68;;;5.18;;
19891;SDS011;10108;50.142;8.724;2022-09-21T12:29:52;9.93;;;5.53;;
19891;SDS011;10108;50.142;8.724;2022-09-21T12:32:39;6.95;;;5.10;;
19891;SDS011;10108;50.142;8.724;2022-09-21T12:35:24;7.10;;;5.22;;
19891;SDS011;10108;50.142;8.724;2022-09-21T12:38:10;6.80;;;5.47;;
19891;SDS011;10108;50.142;8.724;2022-09-21T12:40:45;5.70;;;5.20;;
19891;SDS011;10108;50.142;8.724;2022-09-21T12:48:53;5.95;;;5.35;;
19891;SDS011;10108;50.142;8.724;2022-09-21T12:51:25;6.88;;;5.20;;
19891;SDS011;10108;50.142;8.724;2022-09-21T12:54:00;6.00;;;5.25;;
19891;SDS011;10108;50.142;8.724;2022-09-21T12:56:42;5.90;;;5.30;;
19891;SDS011;10108;50.142;8.724;2022-09-21T12:59:23;7.25;;;5.10;;
19891;SDS011;10108;50.142;8.724;2022-09-21T13:04:43;7.88;;;5.10;;
19891;SDS011;10108;50.142;8.724;2022-09-21T13:10:13;5.70;;;5.20;;
19891;SDS011;10108;50.142;8.724;2022-09-21T13:12:48;7.63;;;5.30;;
19891;SDS011;10108;50.142;8.724;2022-09-21T13:17:46;6.53;;;5.20;;
19891;SDS011;10108;50.142;8.724;2022-09-21T13:20:34;6.05;;;5.20;;
19891;SDS011;10108;50.142;8.724;2022-09-21T13:23:02;6.53;;;5.20;;
19891;SDS011;10108;50.142;8.724;2022-09-21T13:25:29;5.80;;;5.20;;
19891;SDS011;10108;50.142;8.724;2022-09-21T13:46:43;5.93;;;5.30;;
19891;SDS011;10108;50.142;8.724;2022-09-21T13:49:20;5.80;;;5.15;;
19891;SDS011;10108;50.142;8.724;2022-09-21T13:57:19;6.03;;;5.07;;
19891;SDS011;10108;50.142;8.724;2022-09-21T14:00:02;8.73;;;5.40;;
19891;SDS011;10108;50.142;8.724;2022-09-21T14:13:24;8.05;;;6.03;;
19891;SDS011;10108;50.142;8.724;2022-09-21T14:15:54;7.70;;;5.93;;
19891;SDS011;10108;50.142;8.724;2022-09-21T14:18:59;10.15;;;6.05;;
19891;SDS011;10108;50.142;8.724;2022-09-21T14:21:26;7.47;;;5.90;;
19891;SDS011;10108;50.142;8.724;2022-09-21T14:29:15;10.25;;;6.50;;
19891;SDS011;10108;50.142;8.724;2022-09-21T14:32:01;7.90;;;5.68;;
19891;SDS011;10108;50.142;8.724;2022-09-21T14:34:30;8.82;;;5.88;;
19891;SDS011;10108;50.142;8.724;2022-09-21T14:37:02;5.80;;;5.20;;
19891;SDS011;10108;50.142;8.724;2022-09-21T14:39:33;6.22;;;5.60;;
19891;SDS011;10108;50.142;8.724;2022-09-21T14:42:06;7.40;;;5.60;;
19891;SDS011;10108;50.142;8.724;2022-09-21T14:44:42;6.03;;;5.43;;
19891;SDS011;10108;50.142;8.724;2022-09-21T14:47:24;6.00;;;5.40;;
19891;SDS011;10108;50.142;8.724;2022-09-21T14:50:13;6.18;;;5.30;;
19891;SDS011;10108;50.142;8.724;2022-09-21T14:55:58;7.03;;;5.55;;
19891;SDS011;10108;50.142;8.724;2022-09-21T15:10:21;6.68;;;5.13;;
19891;SDS011;10108;50.142;8.724;2022-09-21T15:13:18;6.85;;;5.30;;
19891;SDS011;10108;50.142;8.724;2022-09-21T15:18:44;6.30;;;5.30;;
19891;SDS011;10108;50.142;8.724;2022-09-21T15:21:18;7.40;;;5.30;;
19891;SDS011;10108;50.142;8.724;2022-09-21T15:23:52;8.05;;;5.50;;
19891;SDS011;10108;50.142;8.724;2022-09-21T15:26:20;6.65;;;5.00;;
19891;SDS011;10108;50.142;8.724;2022-09-21T15:29:00;8.80;;;5.10;;
19891;SDS011;10108;50.142;8.724;2022-09-21T15:31:32;6.75;;;5.63;;
19891;SDS011;10108;50.142;8.724;2022-09-21T15:34:00;8.32;;;5.50;;
19891;SDS011;10108;50.142;8.724;2022-09-21T15:36:30;5.93;;;5.32;;
19891;SDS011;10108;50.142;8.724;2022-09-21T15:38:58;5.97;;;5.10;;
19891;SDS011;10108;50.142;8.724;2022-09-21T15:44:14;5.90;;;5.20;;
19891;SDS011;10108;50.142;8.724;2022-09-21T15:46:49;6.03;;;4.80;;
19891;SDS011;10108;50.142;8.724;2022-09-21T15:49:18;5.82;;;4.72;;
19891;SDS011;10108;50.142;8.724;2022-09-21T15:51:49;7.72;;;5.00;;
19891;SDS011;10108;50.142;8.724;2022-09-21T15:54:28;5.57;;;5.07;;
19891;SDS011;10108;50.142;8.724;2022-09-21T15:56:59;6.45;;;5.38;;
19891;SDS011;10108;50.142;8.724;2022-09-21T15:59:27;5.55;;;5.05;;
19891;SDS011;10108;50.142;8.724;2022-09-21T16:01:56;5.30;;;4.80;;
19891;SDS011;10108;50.142;8.724;2022-09-21T16:04:25;5.97;;;5.00;;
19891;SDS011;10108;50.142;8.724;2022-09-21T16:09:39;6.25;;;5.18;;
19891;SDS011;10108;50.142;8.724;2022-09-21T16:15:05;7.57;;;5.10;;
19891;SDS011;10108;50.142;8.724;2022-09-21T16:17:59;8.38;;;5.30;;
19891;SDS011;10108;50.142;8.724;2022-09-21T16:20:38;9.00;;;5.55;;
19891;SDS011;10108;50.142;8.724;2022-09-21T16:23:13;8.43;;;5.97;;
19891;SDS011;10108;50.142;8.724;2022-09-21T16:25:51;8.88;;;6.07;;
19891;SDS011;10108;50.142;8.724;2022-09-21T16:30:49;8.65;;;5.90;;
19891;SDS011;10108;50.142;8.724;2022-09-21T16:33:33;9.27;;;5.75;;
19891;SDS011;10108;50.142;8.724;2022-09-21T16:38:59;7.18;;;5.50;;
19891;SDS011;10108;50.142;8.724;2022-09-21T16:41:31;11.38;;;5.95;;
19891;SDS011;10108;50.142;8.724;2022-09-21T16:44:03;7.13;;;5.72;;
19891;SDS011;10108;50.142;8.724;2022-09-21T16:46:29;9.85;;;6.28;;
19891;SDS011;10108;50.142;8.724;2022-09-21T16:48:56;8.40;;;6.00;;
19891;SDS011;10108;50.142;8.724;2022-09-21T16:51:25;10.43;;;6.55;;
19891;SDS011;10108;50.142;8.724;2022-09-21T16:53:52;24.17;;;11.98;;
19891;SDS011;10108;50.142;8.724;2022-09-21T16:56:23;24.33;;;12.48;;
19891;SDS011;10108;50.142;8.724;2022-09-21T16:58:49;24.38;;;11.07;;
19891;SDS011;10108;50.142;8.724;2022-09-21T17:01:17;19.50;;;11.43;;
19891;SDS011;10108;50.142;8.724;2022-09-21T17:03:46;15.88;;;9.27;;
19891;SDS011;10108;50.142;8.724;2022-09-21T17:06:16;14.40;;;8.35;;
19891;SDS011;10108;50.142;8.724;2022-09-21T17:08:44;14.38;;;8.30;;
19891;SDS011;10108;50.142;8.724;2022-09-21T17:11:14;11.15;;;7.53;;
19891;SDS011;10108;50.142;8.724;2022-09-21T17:13:45;8.73;;;6.50;;
19891;SDS011;10108;50.142;8.724;2022-09-21T17:16:12;7.57;;;5.47;;
19891;SDS011;10108;50.142;8.724;2022-09-21T17:18:41;7.28;;;5.50;;
19891;SDS011;10108;50.142;8.724;2022-09-21T17:21:08;7.70;;;5.60;;
19891;SDS011;10108;50.142;8.724;2022-09-21T17:23:34;11.45;;;5.68;;
19891;SDS011;10108;50.142;8.724;2022-09-21T17:26:00;9.98;;;5.90;;
19891;SDS011;10108;50.142;8.724;2022-09-21T17:28:26;7.68;;;5.32;;
19891;SDS011;10108;50.142;8.724;2022-09-21T17:30:53;7.78;;;5.65;;
19891;SDS011;10108;50.142;8.724;2022-09-21T17:33:19;7.25;;;5.80;;
19891;SDS011;10108;50.142;8.724;2022-09-21T17:35:46;8.93;;;5.38;;
19891;SDS011;10108;50.142;8.724;2022-09-21T17:38:15;7.95;;;5.38;;
19891;SDS011;10108;50.142;8.724;2022-09-21T17:40:42;10.73;;;6.78;;
19891;SDS011;10108;50.142;8.724;2022-09-21T17:46:01;12.23;;;7.20;;
19891;SDS011;10108;50.142;8.724;2022-09-21T17:48:51;11.27;;;7.10;;
19891;SDS011;10108;50.142;8.724;2022-09-21T17:51:17;8.30;;;6.10;;
19891;SDS011;10108;50.142;8.724;2022-09-21T17:54:03;8.10;;;5.35;;
19891;SDS011;10108;50.142;8.724;2022-09-21T17:57:15;8.30;;;5.10;;
19891;SDS011;10108;50.142;8.724;2022-09-21T17:59:34;6.72;;;4.72;;
19891;SDS011;10108;50.142;8.724;2022-09-21T18:02:03;6.68;;;4.90;;
19891;SDS011;10108;50.142;8.724;2022-09-21T18:04:44;9.05;;;4.72;;
19891;SDS011;10108;50.142;8.724;2022-09-21T18:07:12;6.80;;;4.45;;
19891;SDS011;10108;50.142;8.724;2022-09-21T18:09:38;11.10;;;5.10;;
19891;SDS011;10108;50.142;8.724;2022-09-21T18:15:11;8.18;;;5.50;;
19891;SDS011;10108;50.142;8.724;2022-09-21T18:17:54;8.00;;;5.20;;
19891;SDS011;10108;50.142;8.724;2022-09-21T18:23:24;8.63;;;5.28;;
19891;SDS011;10108;50.142;8.724;2022-09-21T18:26:11;9.45;;;5.60;;
19891;SDS011;10108;50.142;8.724;2022-09-21T18:28:41;8.77;;;5.22;;
19891;SDS011;10108;50.142;8.724;2022-09-21T18:33:58;9.38;;;5.15;;
19891;SDS011;10108;50.142;8.724;2022-09-21T18:37:23;8.15;;;5.60;;
19891;SDS011;10108;50.142;8.724;2022-09-21T18:53:07;8.55;;;5.40;;
19891;SDS011;10108;50.142;8.724;2022-09-21T18:55:40;8.65;;;5.72;;
19891;SDS011;10108;50.142;8.724;2022-09-21T18:58:07;9.63;;;5.93;;
19891;SDS011;10108;50.142;8.724;2022-09-21T19:00:34;10.10;;;6.10;;
19891;SDS011;10108;50.142;8.724;2022-09-21T19:03:02;6.93;;;5.15;;
19891;SDS011;10108;50.142;8.724;2022-09-21T19:05:31;7.53;;;5.18;;
19891;SDS011;10108;50.142;8.724;2022-09-21T19:08:09;12.32;;;5.32;;
19891;SDS011;10108;50.142;8.724;2022-09-21T19:10:42;9.95;;;6.00;;
19891;SDS011;10108;50.142;8.724;2022-09-21T19:13:36;10.63;;;6.07;;
19891;SDS011;10108;50.142;8.724;2022-09-21T19:16:25;9.93;;;6.30;;
19891;SDS011;10108;50.142;8.724;2022-09-21T19:24:33;12.02;;;5.75;;
19891;SDS011;10108;50.142;8.724;2022-09-21T19:30:09;9.05;;;5.85;;
19891;SDS011;10108;50.142;8.724;2022-09-21T19:32:41;6.97;;;4.53;;
19891;SDS011;10108;50.142;8.724;2022-09-21T19:35:29;8.35;;;5.10;;
19891;SDS011;10108;50.142;8.724;2022-09-21T19:38:00;7.53;;;5.05;;
19891;SDS011;10108;50.142;8.724;2022-09-21T19:40:28;7.38;;;4.90;;
19891;SDS011;10108;50.142;8.724;2022-09-21T19:49:01;8.70;;;5.10;;
19891;SDS011;10108;50.142;8.724;2022-09-21T19:51:50;7.72;;;5.07;;
19891;SDS011;10108;50.142;8.724;2022-09-21T19:54:18;9.05;;;5.20;;
19891;SDS011;10108;50.142;8.724;2022-09-21T20:00:05;9.77;;;5.00;;
19891;SDS011;10108;50.142;8.724;2022-09-21T20:03:17;7.32;;;4.70;;
19891;SDS011;10108;50.142;8.724;2022-09-21T20:05:35;7.60;;;4.80;;
19891;SDS011;10108;50.142;8.724;2022-09-21T20:08:14;7.97;;;4.97;;
19891;SDS011;10108;50.142;8.724;2022-09-21T20:11:00;7.55;;;4.85;;
19891;SDS011;10108;50.142;8.724;2022-09-21T20:16:44;10.85;;;6.40;;
19891;SDS011;10108;50.142;8.724;2022-09-21T20:22:10;10.50;;;6.10;;
19891;SDS011;10108;50.142;8.724;2022-09-21T20:24:43;10.55;;;6.72;;
19891;SDS011;10108;50.142;8.724;2022-09-21T20:27:21;9.25;;;5.97;;
19891;SDS011;10108;50.142;8.724;2022-09-21T20:29:52;13.25;;;6.00;;
19891;SDS011;10108;50.142;8.724;2022-09-21T20:32:19;11.30;;;6.32;;
19891;SDS011;10108;50.142;8.724;2022-09-21T20:34:46;10.85;;;6.35;;
19891;SDS011;10108;50.142;8.724;2022-09-21T20:37:14;13.48;;;6.88;;
19891;SDS011;10108;50.142;8.724;2022-09-21T20:39:41;10.45;;;5.80;;
19891;SDS011;10108;50.142;8.724;2022-09-21T20:42:14;9.02;;;5.50;;
19891;SDS011;10108;50.142;8.724;2022-09-21T20:44:51;8.15;;;5.20;;
19891;SDS011;10108;50.142;8.724;2022-09-21T20:47:18;7.78;;;5.07;;
19891;SDS011;10108;50.142;8.724;2022-09-21T20:49:48;7.93;;;5.57;;
19891;SDS011;10108;50.142;8.724;2022-09-21T20:52:14;8.35;;;5.30;;
19891;SDS011;10108;50.142;8.724;2022-09-21T20:54:42;8.35;;;5.20;;
19891;SDS011;10108;50.142;8.724;2022-09-21T20:57:09;9.07;;;5.68;;
19891;SDS011;10108;50.142;8.724;2022-09-21T20:59:35;10.35;;;5.32;;
19891;SDS011;10108;50.142;8.724;2022-09-21T21:02:01;8.18;;;5.00;;
19891;SDS011;10108;50.142;8.724;2022-09-21T21:04:28;10.85;;;5.15;;
19891;SDS011;10108;50.142;8.724;2022-09-21T21:06:54;7.57;;;5.05;;
19891;SDS011;10108;50.142;8.724;2022-09-21T21:09:21;6.47;;;5.20;;